Time;durP1;ratioP1;P1;durP2;ratioP2;P2;SDS_P1;SDS_P2;PMS_P1;PMS_P2;Temp;Humidity;BMP_temperature;BMP_pressure;BME280_temperature;BME280_humidity;BME280_pressure;Samples;Min_cycle;Max_cycle;Signal;HPM_P1;HPM_P2
2023/05/15 00:00:15;;;;;;;;;;;11.10;99.90;;;;;;5145786;27;20057;-79
2023/05/15 00:02:40;;;;;;;;;;;11.10;99.90;;;;;;5150873;27;19930;-79
2023/05/15 00:05:06;;;;;;;;;;;11.10;99.90;;;;;;5153884;27;19930;-80
2023/05/15 00:07:32;;;;;;;;;;;11.10;99.90;;;;;;5149907;27;19930;-80
2023/05/15 00:09:58;;;;;;;;;;;11.10;99.90;;;;;;5149881;27;19934;-80
2023/05/15 00:12:23;;;;;;;;;;;11.10;99.90;;;;;;5147753;27;20017;-81
2023/05/15 00:14:49;;;;;;;;;;;11.10;99.90;;;;;;5138138;27;19927;-81
2023/05/15 00:17:14;;;;;;;;;;;11.10;99.90;;;;;;5148263;27;20411;-81
2023/05/15 00:19:40;;;;;;;;;;;11.10;99.90;;;;;;5146357;27;19930;-80
2023/05/15 00:22:05;;;;;;;;;;;11.10;99.90;;;;;;5151473;27;19922;-81
2023/05/15 00:24:31;;;;;;;;;;;11.10;99.90;;;;;;5153804;27;20286;-80
2023/05/15 00:26:58;;;;;;;;;;;11.00;99.90;;;;;;5130441;27;19923;-80
2023/05/15 00:29:23;;;;;;;;;;;11.00;99.90;;;;;;5143506;27;20401;-81
2023/05/15 00:31:49;;;;;;;;;;;11.00;99.90;;;;;;5137388;27;19930;-80
2023/05/15 00:34:15;;;;;;;;;;;11.00;99.90;;;;;;5143462;27;19966;-81
2023/05/15 00:36:40;;;;;;;;;;;10.90;99.90;;;;;;5152624;27;19923;-81
2023/05/15 00:39:06;;;;;;;;;;;10.90;99.90;;;;;;5146249;27;19923;-80
2023/05/15 00:41:32;;;;;;;;;;;10.80;99.90;;;;;;5141715;27;19927;-81
2023/05/15 00:43:59;;;;;;;;;;;10.80;99.90;;;;;;5143176;27;19923;-81
2023/05/15 00:46:26;;;;;;;;;;;10.90;99.90;;;;;;5135372;27;20009;-81
2023/05/15 00:48:52;;;;;;;;;;;10.80;99.90;;;;;;5146367;27;19923;-80
2023/05/15 00:51:17;;;;;;;;;;;10.80;99.90;;;;;;5166221;27;20056;-81
2023/05/15 00:53:43;;;;;;;;;;;10.70;99.90;;;;;;5136993;27;19987;-80
2023/05/15 00:56:10;;;;;;;;;;;10.80;99.90;;;;;;5151783;27;20435;-82
2023/05/15 00:58:36;;;;;;;;;;;10.80;99.90;;;;;;5144692;27;19923;-81
2023/05/15 01:01:02;;;;;;;;;;;10.70;99.90;;;;;;5138514;27;19965;-81
2023/05/15 01:03:27;;;;;;;;;;;10.70;99.90;;;;;;5145124;27;19977;-80
2023/05/15 01:05:53;;;;;;;;;;;10.70;99.90;;;;;;5147610;27;20648;-80
2023/05/15 01:08:22;;;;;;;;;;;10.60;99.90;;;;;;5148915;27;20303;-81
2023/05/15 01:10:51;;;;;;;;;;;10.60;99.90;;;;;;5127727;27;20018;-81
2023/05/15 01:13:18;;;;;;;;;;;10.70;99.90;;;;;;5133084;27;19926;-81
2023/05/15 01:15:44;;;;;;;;;;;10.70;99.90;;;;;;5139903;27;19958;-81
2023/05/15 01:18:09;;;;;;;;;;;10.70;99.90;;;;;;5144241;27;19973;-82
2023/05/15 01:20:46;;;;;;;;;;;10.70;99.90;;;;;;5144143;27;19931;-82
2023/05/15 01:23:15;;;;;;;;;;;10.70;99.90;;;;;;5141864;27;19947;-81
2023/05/15 01:25:44;;;;;;;;;;;10.70;99.90;;;;;;5150636;27;19927;-80
2023/05/15 01:28:17;;;;;;;;;;;10.70;99.90;;;;;;5132868;27;19923;-81
2023/05/15 01:30:44;;;;;;;;;;;10.70;99.90;;;;;;5123983;27;20005;-79
2023/05/15 01:33:24;;;;;;;;;;;10.60;99.90;;;;;;5140944;27;19927;-80
2023/05/15 01:36:06;;;;;;;;;;;10.70;99.90;;;;;;5124713;27;19929;-81
2023/05/15 01:38:32;;;;;;;;;;;10.70;99.90;;;;;;5144472;27;19927;-80
2023/05/15 01:41:02;;;;;;;;;;;10.70;99.90;;;;;;5143115;27;20437;-80
2023/05/15 01:43:30;;;;;;;;;;;10.70;99.90;;;;;;5135238;27;19976;-80
2023/05/15 01:45:57;;;;;;;;;;;10.70;99.90;;;;;;5148611;27;20063;-80
2023/05/15 01:48:24;;;;;;;;;;;10.70;99.90;;;;;;5147217;27;20053;-80
2023/05/15 01:50:50;;;;;;;;;;;10.60;99.90;;;;;;5134972;27;20316;-81
2023/05/15 01:53:16;;;;;;;;;;;10.70;99.90;;;;;;5145958;27;19956;-81
2023/05/15 01:55:42;;;;;;;;;;;10.60;99.90;;;;;;5131613;27;20011;-81
2023/05/15 01:58:08;;;;;;;;;;;10.60;99.90;;;;;;5135177;27;20394;-80
2023/05/15 02:00:34;;;;;;;;;;;10.60;99.90;;;;;;5139323;27;19969;-81
2023/05/15 02:03:00;;;;;;;;;;;10.60;99.90;;;;;;5153802;27;19919;-80
2023/05/15 02:05:26;;;;;;;;;;;10.60;99.90;;;;;;5153515;27;19923;-81
2023/05/15 02:07:51;;;;;;;;;;;10.50;99.90;;;;;;5132617;27;19954;-80
2023/05/15 02:10:17;;;;;;;;;;;10.50;99.90;;;;;;5154091;27;20013;-80
2023/05/15 02:12:43;;;;;;;;;;;10.40;99.90;;;;;;5111073;27;19923;-81
2023/05/15 02:15:09;;;;;;;;;;;10.40;99.90;;;;;;5132742;27;19937;-81
2023/05/15 02:17:35;;;;;;;;;;;10.40;99.90;;;;;;5147282;27;19923;-81
2023/05/15 02:20:01;;;;;;;;;;;10.40;99.90;;;;;;5162910;27;20031;-81
2023/05/15 02:22:26;;;;;;;;;;;10.50;99.90;;;;;;5120796;27;19930;-81
2023/05/15 02:24:52;;;;;;;;;;;10.50;99.90;;;;;;5134870;27;19923;-81
2023/05/15 02:27:17;;;;;;;;;;;10.50;99.90;;;;;;5132965;27;19923;-81
2023/05/15 02:29:49;;;;;;;;;;;10.50;99.90;;;;;;5151988;27;20324;-81
2023/05/15 02:32:27;;;;;;;;;;;10.50;99.90;;;;;;5145370;27;19972;-81
2023/05/15 02:35:11;;;;;;;;;;;10.50;99.90;;;;;;5147885;27;19923;-80
2023/05/15 02:37:38;;;;;;;;;;;10.50;99.90;;;;;;5147054;27;19979;-80
2023/05/15 02:40:07;;;;;;;;;;;10.50;99.90;;;;;;5156305;27;19927;-81
2023/05/15 02:42:33;;;;;;;;;;;10.40;99.90;;;;;;5144438;27;19922;-81
2023/05/15 02:44:59;;;;;;;;;;;10.40;99.90;;;;;;5154392;27;20034;-80
2023/05/15 02:47:25;;;;;;;;;;;10.40;99.90;;;;;;5152336;27;20383;-81
2023/05/15 02:49:51;;;;;;;;;;;10.40;99.90;;;;;;5138965;27;19923;-81
2023/05/15 02:52:17;;;;;;;;;;;10.40;99.90;;;;;;5125897;27;19930;-80
2023/05/15 02:54:43;;;;;;;;;;;10.40;99.90;;;;;;5134887;27;19922;-82
2023/05/15 02:57:08;;;;;;;;;;;10.40;99.90;;;;;;5143948;27;19931;-81
2023/05/15 02:59:34;;;;;;;;;;;10.40;99.90;;;;;;5135428;27;20026;-81
2023/05/15 03:02:00;;;;;;;;;;;10.30;99.90;;;;;;5150465;27;19923;-80
2023/05/15 03:04:25;;;;;;;;;;;10.40;99.90;;;;;;5145154;27;19933;-80
2023/05/15 03:06:51;;;;;;;;;;;10.30;99.90;;;;;;5147757;27;19929;-80
2023/05/15 03:09:16;;;;;;;;;;;10.30;99.90;;;;;;5144681;27;19923;-81
2023/05/15 03:11:42;;;;;;;;;;;10.30;99.90;;;;;;5152028;27;20034;-79
2023/05/15 03:14:07;;;;;;;;;;;10.30;99.90;;;;;;5137205;27;19927;-80
2023/05/15 03:16:35;;;;;;;;;;;10.20;99.90;;;;;;5117025;27;19973;-80
2023/05/15 03:19:01;;;;;;;;;;;10.20;99.90;;;;;;5131120;27;19927;-80
2023/05/15 03:21:26;;;;;;;;;;;10.20;99.90;;;;;;5146028;27;19929;-80
2023/05/15 03:23:52;;;;;;;;;;;10.10;99.90;;;;;;5125481;27;19924;-83
2023/05/15 03:26:17;;;;;;;;;;;10.10;99.90;;;;;;5146023;27;19927;-80
2023/05/15 03:28:43;;;;;;;;;;;10.10;99.90;;;;;;5146576;27;20745;-80
2023/05/15 03:31:09;;;;;;;;;;;10.00;99.90;;;;;;5152984;27;19927;-82
2023/05/15 03:33:34;;;;;;;;;;;10.00;99.90;;;;;;5132877;27;19923;-81
2023/05/15 03:36:00;;;;;;;;;;;10.00;99.90;;;;;;5130411;27;20458;-80
2023/05/15 03:38:25;;;;;;;;;;;10.00;99.90;;;;;;5148937;27;20371;-81
2023/05/15 03:40:51;;;;;;;;;;;10.00;99.90;;;;;;5136605;27;20271;-80
2023/05/15 03:43:16;;;;;;;;;;;10.00;99.90;;;;;;5131912;27;19922;-81
2023/05/15 03:45:42;;;;;;;;;;;10.00;99.90;;;;;;5149578;27;20018;-80
2023/05/15 03:48:08;;;;;;;;;;;10.00;99.90;;;;;;5145058;27;20071;-79
2023/05/15 03:50:34;;;;;;;;;;;10.00;99.90;;;;;;5129440;27;20356;-80
2023/05/15 03:52:59;;;;;;;;;;;10.10;99.90;;;;;;5132356;27;19958;-82
2023/05/15 03:55:25;;;;;;;;;;;10.00;99.90;;;;;;5127445;27;20013;-80
2023/05/15 03:57:50;;;;;;;;;;;10.00;99.90;;;;;;5148904;27;19923;-81
2023/05/15 04:00:16;;;;;;;;;;;10.00;99.90;;;;;;5115219;27;19923;-80
2023/05/15 04:02:41;;;;;;;;;;;10.00;99.90;;;;;;5148672;27;19923;-81
2023/05/15 04:05:08;;;;;;;;;;;10.00;99.90;;;;;;5151435;27;19927;-79
2023/05/15 04:07:34;;;;;;;;;;;10.00;99.90;;;;;;5147851;27;19946;-80
2023/05/15 04:10:00;;;;;;;;;;;10.00;99.90;;;;;;5135172;27;19970;-82
2023/05/15 04:12:31;;;;;;;;;;;9.90;99.90;;;;;;5147817;27;19927;-81
2023/05/15 04:15:15;;;;;;;;;;;9.90;99.90;;;;;;5140297;27;19977;-81
2023/05/15 04:17:41;;;;;;;;;;;9.90;99.90;;;;;;5122657;27;20299;-80
2023/05/15 04:20:08;;;;;;;;;;;9.90;99.90;;;;;;5141716;27;19922;-80
2023/05/15 04:22:34;;;;;;;;;;;9.80;99.90;;;;;;5146114;27;19926;-81
2023/05/15 04:24:59;;;;;;;;;;;9.80;99.90;;;;;;5146903;27;20013;-82
2023/05/15 04:27:25;;;;;;;;;;;9.90;99.90;;;;;;5126998;27;19923;-81
2023/05/15 04:29:51;;;;;;;;;;;9.80;99.90;;;;;;5143301;27;19923;-81
2023/05/15 04:32:16;;;;;;;;;;;9.70;99.90;;;;;;5144138;27;19923;-80
2023/05/15 04:34:42;;;;;;;;;;;9.70;99.90;;;;;;5128895;27;19970;-79
2023/05/15 04:37:09;;;;;;;;;;;9.70;99.90;;;;;;5141839;27;19973;-80
2023/05/15 04:39:35;;;;;;;;;;;9.70;99.90;;;;;;5148065;27;19927;-80
2023/05/15 04:42:01;;;;;;;;;;;9.80;99.90;;;;;;5144088;27;20387;-81
2023/05/15 04:44:26;;;;;;;;;;;9.80;99.90;;;;;;5120034;27;20396;-80
2023/05/15 04:46:52;;;;;;;;;;;9.90;99.90;;;;;;5129349;27;19930;-80
2023/05/15 04:49:17;;;;;;;;;;;9.90;99.90;;;;;;5122629;27;20014;-80
2023/05/15 04:51:43;;;;;;;;;;;9.90;99.90;;;;;;5145918;27;19923;-79
2023/05/15 04:54:08;;;;;;;;;;;9.90;99.90;;;;;;5140598;27;19974;-79
2023/05/15 04:56:35;;;;;;;;;;;10.00;99.90;;;;;;5143296;27;20314;-79
2023/05/15 04:59:01;;;;;;;;;;;10.00;99.90;;;;;;5133957;27;19923;-79
2023/05/15 05:01:26;;;;;;;;;;;10.00;99.90;;;;;;5140273;27;19931;-80
2023/05/15 05:03:52;;;;;;;;;;;10.00;99.90;;;;;;5138595;27;19946;-80
2023/05/15 05:06:17;;;;;;;;;;;10.00;99.90;;;;;;5112379;27;19937;-81
2023/05/15 05:08:43;;;;;;;;;;;10.10;99.90;;;;;;5125553;27;20283;-79
2023/05/15 05:11:08;;;;;;;;;;;10.20;99.90;;;;;;5144891;27;19986;-78
2023/05/15 05:13:34;;;;;;;;;;;10.20;99.90;;;;;;5128726;27;19938;-82
2023/05/15 05:16:00;;;;;;;;;;;10.10;99.90;;;;;;5146976;27;19973;-81
2023/05/15 05:18:25;;;;;;;;;;;10.10;99.90;;;;;;5148395;27;19923;-80
2023/05/15 05:20:57;;;;;;;;;;;10.10;99.90;;;;;;5147254;27;19923;-79
2023/05/15 05:23:23;;;;;;;;;;;10.10;99.90;;;;;;5139099;27;20044;-76
2023/05/15 05:25:48;;;;;;;;;;;10.10;99.90;;;;;;5143579;27;20014;-80
2023/05/15 05:28:14;;;;;;;;;;;10.20;99.90;;;;;;5137632;27;19927;-81
2023/05/15 05:30:43;;;;;;;;;;;10.20;99.90;;;;;;5144490;27;20448;-79
2023/05/15 05:33:08;;;;;;;;;;;10.40;99.90;;;;;;5149801;27;19971;-84
2023/05/15 05:35:34;;;;;;;;;;;10.50;99.90;;;;;;5131658;27;20001;-80
2023/05/15 05:37:59;;;;;;;;;;;10.50;99.90;;;;;;5113306;27;19934;-80
2023/05/15 05:40:25;;;;;;;;;;;10.60;99.90;;;;;;5149130;27;19937;-79
2023/05/15 05:42:51;;;;;;;;;;;10.60;99.90;;;;;;5150009;27;20283;-81
2023/05/15 05:45:16;;;;;;;;;;;10.60;99.90;;;;;;5123613;27;19923;-80
2023/05/15 05:47:42;;;;;;;;;;;10.60;99.90;;;;;;5143077;27;19938;-80
2023/05/15 05:50:07;;;;;;;;;;;10.70;99.90;;;;;;5136342;27;19930;-80
2023/05/15 05:52:33;;;;;;;;;;;10.80;99.90;;;;;;5147003;27;19923;-80
2023/05/15 05:54:58;;;;;;;;;;;10.90;99.90;;;;;;5149540;27;19991;-81
2023/05/15 05:57:24;;;;;;;;;;;11.00;99.90;;;;;;5145052;27;19934;-82
2023/05/15 05:59:50;;;;;;;;;;;11.10;99.90;;;;;;5134874;27;20117;-82
2023/05/15 06:02:15;;;;;;;;;;;11.20;99.90;;;;;;5153152;27;20378;-82
2023/05/15 06:04:41;;;;;;;;;;;11.40;99.90;;;;;;5123220;27;19923;-83
2023/05/15 06:07:07;;;;;;;;;;;11.50;99.90;;;;;;5149248;27;19923;-82
2023/05/15 06:09:33;;;;;;;;;;;11.60;99.90;;;;;;5143362;27;19930;-81
2023/05/15 06:11:59;;;;;;;;;;;11.60;99.90;;;;;;5131128;27;20294;-82
2023/05/15 06:14:25;;;;;;;;;;;11.80;99.90;;;;;;5148054;27;19924;-83
2023/05/15 06:16:51;;;;;;;;;;;12.00;99.90;;;;;;5152941;27;19976;-81
2023/05/15 06:19:16;;;;;;;;;;;12.10;99.90;;;;;;5137441;27;19927;-82
2023/05/15 06:21:42;;;;;;;;;;;12.20;99.90;;;;;;5155188;27;20198;-82
2023/05/15 06:24:07;;;;;;;;;;;12.20;99.90;;;;;;5124962;27;19923;-82
2023/05/15 06:26:33;;;;;;;;;;;12.20;99.90;;;;;;5144339;27;20342;-82
2023/05/15 06:28:58;;;;;;;;;;;12.20;99.90;;;;;;5140046;27;19957;-82
2023/05/15 06:31:24;;;;;;;;;;;12.30;99.90;;;;;;5140161;27;20280;-84
2023/05/15 06:33:50;;;;;;;;;;;12.30;99.90;;;;;;5120008;27;19931;-83
2023/05/15 06:36:15;;;;;;;;;;;12.30;99.90;;;;;;5126205;27;19983;-87
2023/05/15 06:38:41;;;;;;;;;;;12.30;99.90;;;;;;5151880;27;20075;-81
2023/05/15 06:41:06;;;;;;;;;;;12.40;99.90;;;;;;5144067;27;19923;-82
2023/05/15 06:43:32;;;;;;;;;;;12.40;99.90;;;;;;5136982;27;20406;-80
2023/05/15 06:45:57;;;;;;;;;;;12.60;99.90;;;;;;5137112;27;20398;-83
2023/05/15 06:48:23;;;;;;;;;;;12.70;99.90;;;;;;5136524;27;19923;-82
2023/05/15 06:50:49;;;;;;;;;;;12.80;99.90;;;;;;5155249;27;19927;-83
2023/05/15 06:53:16;;;;;;;;;;;12.90;99.90;;;;;;5135744;27;19934;-84
2023/05/15 06:55:41;;;;;;;;;;;13.10;99.90;;;;;;5134320;27;19923;-82
2023/05/15 06:58:07;;;;;;;;;;;13.20;99.90;;;;;;5137215;27;19949;-83
2023/05/15 07:00:33;;;;;;;;;;;13.30;99.90;;;;;;5154308;27;19931;-82
2023/05/15 07:02:58;;;;;;;;;;;13.40;99.90;;;;;;5147409;27;19927;-82
2023/05/15 07:05:24;;;;;;;;;;;13.60;99.90;;;;;;5131033;27;19975;-82
2023/05/15 07:07:49;;;;;;;;;;;13.70;99.90;;;;;;5145491;27;20014;-83
2023/05/15 07:10:15;;;;;;;;;;;13.80;99.90;;;;;;5127112;27;19923;-82
2023/05/15 07:12:40;;;;;;;;;;;14.00;99.90;;;;;;5139696;27;19920;-82
2023/05/15 07:15:06;;;;;;;;;;;14.20;99.90;;;;;;5154587;27;19968;-81
2023/05/15 07:17:32;;;;;;;;;;;14.50;99.90;;;;;;5118506;27;19948;-81
2023/05/15 07:19:57;;;;;;;;;;;14.60;99.90;;;;;;5136709;27;19972;-82
2023/05/15 07:22:25;;;;;;;;;;;14.90;99.90;;;;;;5153906;27;19923;-85
2023/05/15 07:24:51;;;;;;;;;;;15.10;99.90;;;;;;5136700;27;20279;-82
2023/05/15 07:27:16;;;;;;;;;;;15.20;99.90;;;;;;5152399;27;19923;-82
2023/05/15 07:29:42;;;;;;;;;;;15.10;99.90;;;;;;5136022;27;19922;-82
2023/05/15 07:32:07;;;;;;;;;;;15.00;99.90;;;;;;5122189;27;19930;-82
2023/05/15 07:34:33;;;;;;;;;;;15.00;99.90;;;;;;5141918;27;19923;-82
2023/05/15 07:36:58;;;;;;;;;;;15.10;99.90;;;;;;5136666;27;19931;-82
2023/05/15 07:39:24;;;;;;;;;;;15.30;99.90;;;;;;5135976;27;19934;-87
2023/05/15 07:41:49;;;;;;;;;;;15.50;99.90;;;;;;5152623;27;19923;-83
2023/05/15 07:44:15;;;;;;;;;;;15.60;99.90;;;;;;5142186;27;19960;-82
2023/05/15 07:46:41;;;;;;;;;;;15.60;99.90;;;;;;5139656;27;19953;-83
2023/05/15 07:49:06;;;;;;;;;;;15.80;99.90;;;;;;5136074;27;19927;-82
2023/05/15 07:51:32;;;;;;;;;;;15.90;99.90;;;;;;5135830;27;19923;-82
2023/05/15 07:53:57;;;;;;;;;;;16.10;99.90;;;;;;5135942;27;19930;-82
2023/05/15 07:56:23;;;;;;;;;;;16.40;99.90;;;;;;5152296;27;19972;-82
2023/05/15 07:58:48;;;;;;;;;;;16.50;99.90;;;;;;5145551;27;19927;-83
2023/05/15 08:01:14;;;;;;;;;;;16.70;99.90;;;;;;5133426;27;19950;-84
2023/05/15 08:03:40;;;;;;;;;;;16.80;99.90;;;;;;5116263;27;19959;-83
2023/05/15 08:06:07;;;;;;;;;;;16.50;99.90;;;;;;5147719;27;20010;-82
2023/05/15 08:08:32;;;;;;;;;;;16.10;99.90;;;;;;5145246;27;19923;-82
2023/05/15 08:10:58;;;;;;;;;;;15.90;99.90;;;;;;5114028;27;20395;-82
2023/05/15 08:13:24;;;;;;;;;;;15.80;99.90;;;;;;5136577;27;19951;-81
2023/05/15 08:15:49;;;;;;;;;;;15.70;99.90;;;;;;5122435;27;19938;-82
2023/05/15 08:18:15;;;;;;;;;;;15.60;99.90;;;;;;5146059;27;19930;-83
2023/05/15 08:20:40;;;;;;;;;;;15.50;99.90;;;;;;5147579;27;20015;-82
2023/05/15 08:23:06;;;;;;;;;;;15.50;99.90;;;;;;5119256;27;19960;-82
2023/05/15 08:25:32;;;;;;;;;;;15.60;99.90;;;;;;5135338;27;19923;-83
2023/05/15 08:27:57;;;;;;;;;;;16.20;99.90;;;;;;5116379;27;19955;-83
2023/05/15 08:30:23;;;;;;;;;;;16.90;99.90;;;;;;5145828;27;19927;-83
2023/05/15 08:32:48;;;;;;;;;;;17.40;99.90;;;;;;5135261;27;20018;-82
2023/05/15 08:35:14;;;;;;;;;;;18.00;99.90;;;;;;5152057;27;19991;-87
2023/05/15 08:37:40;;;;;;;;;;;18.60;99.90;;;;;;5145815;27;19972;-83
2023/05/15 08:40:06;;;;;;;;;;;19.00;91.40;;;;;;5111967;27;19945;-83
2023/05/15 08:42:36;;;;;;;;;;;19.40;88.10;;;;;;5152835;27;19923;-86
2023/05/15 08:45:02;;;;;;;;;;;19.80;90.60;;;;;;5153376;27;20002;-82
2023/05/15 08:47:31;;;;;;;;;;;20.40;88.70;;;;;;5151807;27;21327;-83
2023/05/15 08:50:00;;;;;;;;;;;20.80;72.00;;;;;;5152670;27;20001;-84
2023/05/15 08:52:26;;;;;;;;;;;21.10;74.50;;;;;;5144600;27;19924;-82
2023/05/15 08:54:52;;;;;;;;;;;21.40;68.00;;;;;;5115173;27;19930;-83
2023/05/15 08:57:17;;;;;;;;;;;21.80;74.00;;;;;;5132997;27;19923;-83
2023/05/15 08:59:43;;;;;;;;;;;22.10;54.10;;;;;;5132713;27;19968;-82
2023/05/15 09:02:09;;;;;;;;;;;22.20;56.10;;;;;;5123016;27;19931;-83
2023/05/15 09:04:34;;;;;;;;;;;22.50;61.80;;;;;;5122073;27;19966;-87
2023/05/15 09:07:01;;;;;;;;;;;23.00;57.10;;;;;;5127738;27;19924;-82
2023/05/15 09:09:28;;;;;;;;;;;23.40;53.80;;;;;;5134383;27;19974;-82
2023/05/15 09:11:54;;;;;;;;;;;23.60;51.80;;;;;;5144262;27;19974;-82
2023/05/15 09:14:20;;;;;;;;;;;23.90;48.40;;;;;;5147560;27;19927;-83
2023/05/15 09:16:48;;;;;;;;;;;24.20;44.70;;;;;;5152795;27;19937;-83
2023/05/15 09:19:14;;;;;;;;;;;24.20;46.60;;;;;;5135688;27;19923;-82
2023/05/15 09:21:39;;;;;;;;;;;24.20;50.20;;;;;;5152977;27;20401;-87
2023/05/15 09:24:18;;;;;;;;;;;24.00;44.60;;;;;;5135955;27;19923;-83
2023/05/15 09:26:45;;;;;;;;;;;24.00;48.40;;;;;;5143280;27;20420;-82
2023/05/15 09:29:11;;;;;;;;;;;24.20;44.80;;;;;;5152666;27;20060;-82
2023/05/15 09:31:36;;;;;;;;;;;24.50;42.80;;;;;;5142097;27;20401;-82
2023/05/15 09:34:04;;;;;;;;;;;24.80;45.50;;;;;;5136303;27;19930;-82
2023/05/15 09:36:31;;;;;;;;;;;25.00;44.80;;;;;;5134760;27;19973;-83
2023/05/15 09:38:57;;;;;;;;;;;25.00;42.40;;;;;;5132844;27;19966;-83
2023/05/15 09:41:24;;;;;;;;;;;25.20;40.90;;;;;;5114741;28;19924;-82
2023/05/15 09:43:50;;;;;;;;;;;25.40;43.90;;;;;;5148847;27;20031;-82
2023/05/15 09:46:16;;;;;;;;;;;25.50;43.30;;;;;;5133899;27;20385;-84
2023/05/15 09:48:41;;;;;;;;;;;25.40;42.20;;;;;;5134514;27;19929;-88
2023/05/15 09:51:17;;;;;;;;;;;25.40;40.50;;;;;;5152888;27;19926;-83
2023/05/15 09:53:50;;;;;;;;;;;25.70;40.60;;;;;;5152273;27;19923;-86
2023/05/15 09:56:16;;;;;;;;;;;26.00;42.30;;;;;;5151790;27;20342;-88
2023/05/15 09:58:53;;;;;;;;;;;26.40;42.20;;;;;;5122761;27;19985;-87
2023/05/15 10:01:20;;;;;;;;;;;26.90;40.00;;;;;;5150471;27;20010;-82
2023/05/15 10:03:58;;;;;;;;;;;27.20;36.90;;;;;;5140242;27;20384;-83
2023/05/15 10:06:24;;;;;;;;;;;27.40;36.10;;;;;;5148053;27;20334;-81
2023/05/15 10:08:51;;;;;;;;;;;27.50;38.20;;;;;;5142443;27;19927;-82
2023/05/15 10:11:17;;;;;;;;;;;27.30;36.60;;;;;;5131363;28;19946;-82
2023/05/15 10:13:42;;;;;;;;;;;27.50;38.80;;;;;;5143704;27;20368;-87
2023/05/15 10:16:08;;;;;;;;;;;27.80;35.50;;;;;;5134777;27;19928;-82
2023/05/15 10:18:34;;;;;;;;;;;27.70;36.70;;;;;;5125559;27;20030;-82
2023/05/15 10:21:02;;;;;;;;;;;27.60;34.40;;;;;;5133756;27;20004;-82
2023/05/15 10:23:29;;;;;;;;;;;27.50;35.00;;;;;;5135844;27;20022;-82
2023/05/15 10:26:03;;;;;;;;;;;27.50;33.60;;;;;;5135536;27;20376;-82
2023/05/15 10:28:30;;;;;;;;;;;27.80;35.80;;;;;;5135973;27;20018;-82
2023/05/15 10:30:58;;;;;;;;;;;27.80;32.50;;;;;;5136845;27;20367;-83
2023/05/15 10:33:24;;;;;;;;;;;28.20;36.20;;;;;;5138696;27;19930;-82
2023/05/15 10:35:50;;;;;;;;;;;28.40;33.80;;;;;;5154691;27;19923;-83
2023/05/15 10:38:18;;;;;;;;;;;28.70;33.60;;;;;;5155690;27;19966;-82
2023/05/15 10:40:44;;;;;;;;;;;28.90;31.70;;;;;;5155525;27;19923;-82
2023/05/15 10:43:10;;;;;;;;;;;28.30;31.80;;;;;;5137743;27;19927;-84
2023/05/15 10:45:36;;;;;;;;;;;28.10;36.30;;;;;;5138177;27;19923;-82
2023/05/15 10:48:04;;;;;;;;;;;27.70;34.90;;;;;;5141691;27;20443;-82
2023/05/15 10:50:29;;;;;;;;;;;27.20;35.40;;;;;;5131470;27;19967;-83
2023/05/15 10:52:55;;;;;;;;;;;26.50;35.50;;;;;;5113813;27;19976;-82
2023/05/15 10:55:21;;;;;;;;;;;26.20;34.80;;;;;;5141273;27;19930;-82
2023/05/15 10:57:47;;;;;;;;;;;26.00;36.90;;;;;;5154859;27;19923;-82
2023/05/15 11:00:21;;;;;;;;;;;26.00;38.00;;;;;;5141380;27;19971;-82
2023/05/15 11:02:47;;;;;;;;;;;25.50;35.20;;;;;;5140209;27;19938;-82
2023/05/15 11:05:13;;;;;;;;;;;24.70;36.80;;;;;;5142091;27;19923;-81
2023/05/15 11:07:39;;;;;;;;;;;23.90;37.80;;;;;;5154881;27;20710;-82
2023/05/15 11:10:23;;;;;;;;;;;23.10;39.70;;;;;;5147449;27;19923;-82
2023/05/15 11:12:56;;;;;;;;;;;22.60;42.10;;;;;;5121074;27;20375;-81
2023/05/15 11:15:22;;;;;;;;;;;22.40;41.90;;;;;;5138014;27;20291;-82
2023/05/15 11:18:03;;;;;;;;;;;23.00;43.30;;;;;;5140837;27;19929;-82
2023/05/15 11:20:40;;;;;;;;;;;23.40;39.90;;;;;;5138271;27;19927;-85
2023/05/15 11:23:05;;;;;;;;;;;23.50;40.60;;;;;;5129358;27;19970;-82
2023/05/15 11:25:32;;;;;;;;;;;23.40;41.50;;;;;;5132570;27;19965;-82
2023/05/15 11:27:58;;;;;;;;;;;23.00;41.20;;;;;;5154742;27;19930;-82
2023/05/15 11:30:34;;;;;;;;;;;22.70;42.80;;;;;;5138820;27;19928;-82
2023/05/15 11:33:01;;;;;;;;;;;22.70;43.50;;;;;;5134274;27;19927;-82
2023/05/15 11:35:37;;;;;;;;;;;23.40;44.30;;;;;;5150885;27;19923;-82
2023/05/15 11:38:09;;;;;;;;;;;23.60;41.70;;;;;;5124362;27;19923;-83
2023/05/15 11:40:46;;;;;;;;;;;23.40;42.50;;;;;;5134179;27;19931;-83
2023/05/15 11:43:31;;;;;;;;;;;23.60;43.00;;;;;;5123557;27;19923;-84
2023/05/15 11:45:57;;;;;;;;;;;24.20;42.10;;;;;;5137107;27;19930;-83
2023/05/15 11:48:24;;;;;;;;;;;25.30;38.90;;;;;;5126946;27;19930;-81
2023/05/15 11:50:52;;;;;;;;;;;25.90;38.10;;;;;;5148670;27;19975;-82
2023/05/15 11:53:18;;;;;;;;;;;25.70;36.60;;;;;;5134130;27;19923;-81
2023/05/15 11:55:44;;;;;;;;;;;24.90;36.80;;;;;;5144687;27;19923;-80
2023/05/15 11:58:13;;;;;;;;;;;24.80;37.60;;;;;;5137411;27;19939;-82
2023/05/15 12:00:39;;;;;;;;;;;24.80;38.60;;;;;;5123509;27;19977;-81
2023/05/15 12:03:05;;;;;;;;;;;24.60;38.60;;;;;;5116328;27;19939;-83
2023/05/15 12:05:30;;;;;;;;;;;24.00;39.20;;;;;;5150404;27;19945;-81
2023/05/15 12:07:56;;;;;;;;;;;23.20;40.50;;;;;;5118191;27;19981;-85
2023/05/15 12:10:22;;;;;;;;;;;23.40;43.50;;;;;;5149967;27;19927;-82
2023/05/15 12:12:48;;;;;;;;;;;23.50;42.40;;;;;;5141313;27;20432;-82
2023/05/15 12:15:14;;;;;;;;;;;22.90;41.60;;;;;;5152231;27;20371;-81
2023/05/15 12:17:40;;;;;;;;;;;22.50;43.60;;;;;;5129275;27;19935;-84
2023/05/15 12:20:07;;;;;;;;;;;22.60;43.40;;;;;;5151305;27;19930;-81
2023/05/15 12:22:36;;;;;;;;;;;22.90;44.30;;;;;;5151023;27;20010;-81
2023/05/15 12:25:02;;;;;;;;;;;23.30;44.30;;;;;;5133017;27;19970;-82
2023/05/15 12:27:28;;;;;;;;;;;23.40;44.00;;;;;;5134155;27;19935;-82
2023/05/15 12:29:54;;;;;;;;;;;23.60;43.50;;;;;;5116933;27;19923;-80
2023/05/15 12:32:20;;;;;;;;;;;23.70;42.20;;;;;;5146744;27;19920;-81
2023/05/15 12:34:46;;;;;;;;;;;23.80;42.60;;;;;;5126694;27;19923;-82
2023/05/15 12:37:12;;;;;;;;;;;23.90;42.90;;;;;;5152964;27;19923;-82
2023/05/15 12:40:00;;;;;;;;;;;24.30;42.00;;;;;;5153642;27;19923;-82
2023/05/15 12:42:26;;;;;;;;;;;24.60;39.20;;;;;;5139478;27;19975;-82
2023/05/15 12:44:52;;;;;;;;;;;24.20;40.40;;;;;;5139599;27;19923;-85
2023/05/15 12:47:22;;;;;;;;;;;23.90;41.00;;;;;;5118530;27;19923;-84
2023/05/15 12:49:47;;;;;;;;;;;23.70;41.00;;;;;;5119387;27;19923;-81
2023/05/15 12:52:13;;;;;;;;;;;23.40;41.70;;;;;;5119179;27;20062;-82
2023/05/15 12:54:42;;;;;;;;;;;23.50;42.90;;;;;;5150610;27;19941;-83
2023/05/15 12:57:08;;;;;;;;;;;23.40;42.20;;;;;;5139532;27;20382;-82
2023/05/15 12:59:34;;;;;;;;;;;23.40;41.90;;;;;;5125614;27;19923;-82
2023/05/15 13:02:00;;;;;;;;;;;23.00;42.10;;;;;;5120059;27;19933;-81
2023/05/15 13:04:25;;;;;;;;;;;23.50;43.70;;;;;;5153288;27;20022;-83
2023/05/15 13:06:51;;;;;;;;;;;24.30;43.20;;;;;;5138334;27;19923;-81
2023/05/15 13:09:21;;;;;;;;;;;25.00;41.10;;;;;;5150065;27;19979;-82
2023/05/15 13:11:47;;;;;;;;;;;25.50;41.70;;;;;;5156314;27;19929;-81
2023/05/15 13:14:16;;;;;;;;;;;25.20;38.30;;;;;;5152324;27;19930;-81
2023/05/15 13:16:42;;;;;;;;;;;24.80;39.20;;;;;;5152105;27;19923;-83
2023/05/15 13:19:08;;;;;;;;;;;24.90;38.80;;;;;;5135341;27;19923;-88
2023/05/15 13:21:34;;;;;;;;;;;25.40;38.80;;;;;;5155490;27;19971;-81
2023/05/15 13:23:59;;;;;;;;;;;26.30;38.20;;;;;;5151149;27;19930;-82
2023/05/15 13:26:25;;;;;;;;;;;27.20;34.30;;;;;;5107650;27;19923;-82
2023/05/15 13:28:51;;;;;;;;;;;28.10;31.50;;;;;;5125795;27;19923;-81
2023/05/15 13:31:16;;;;;;;;;;;28.40;29.00;;;;;;5127135;27;19965;-81
2023/05/15 13:33:42;;;;;;;;;;;28.50;30.00;;;;;;5156192;27;19977;-81
2023/05/15 13:36:08;;;;;;;;;;;29.00;30.20;;;;;;5113791;27;19972;-89
2023/05/15 13:38:33;;;;;;;;;;;29.40;31.00;;;;;;5131616;27;19967;-83
2023/05/15 13:40:59;;;;;;;;;;;29.60;30.70;;;;;;5142980;27;19933;-83
2023/05/15 13:43:25;;;;;;;;;;;29.20;29.10;;;;;;5136573;27;19927;-83
2023/05/15 13:45:50;;;;;;;;;;;28.80;30.50;;;;;;5143491;27;19923;-83
2023/05/15 13:48:16;;;;;;;;;;;28.70;31.20;;;;;;5133984;27;19923;-83
2023/05/15 13:50:42;;;;;;;;;;;28.40;31.50;;;;;;5152688;27;19923;-83
2023/05/15 13:53:07;;;;;;;;;;;27.80;31.10;;;;;;5121219;27;19965;-83
2023/05/15 13:55:33;;;;;;;;;;;26.60;32.60;;;;;;5137402;27;20376;-83
2023/05/15 13:57:59;;;;;;;;;;;25.30;34.70;;;;;;5155548;27;19927;-82
2023/05/15 14:00:25;;;;;;;;;;;24.60;36.60;;;;;;5143943;27;20380;-83
2023/05/15 14:02:51;;;;;;;;;;;24.10;38.20;;;;;;5155264;27;19974;-83
2023/05/15 14:05:16;;;;;;;;;;;23.70;38.70;;;;;;5143465;27;19946;-82
2023/05/15 14:07:42;;;;;;;;;;;23.00;40.50;;;;;;5155137;27;19923;-82
2023/05/15 14:10:08;;;;;;;;;;;22.30;41.80;;;;;;5144510;27;20385;-82
2023/05/15 14:12:35;;;;;;;;;;;21.80;43.50;;;;;;5155631;27;19923;-83
2023/05/15 14:15:01;;;;;;;;;;;20.90;45.90;;;;;;5130815;27;20014;-82